sensor_id;sensor_type;location;lat;lon;timestamp;pressure;altitude;pressure_sealevel;temperature;humidity
73624;BME280;61921;53.226;-1.296;2022-12-17T00:01:03;100761.34;;;0.45;88.21
73624;BME280;61921;53.226;-1.296;2022-12-17T00:03:28;100752.65;;;0.42;88.07
73624;BME280;61921;53.226;-1.296;2022-12-17T00:05:54;100752.98;;;0.39;88.32
73624;BME280;61921;53.226;-1.296;2022-12-17T00:08:19;100748.67;;;0.36;88.14
73624;BME280;61921;53.226;-1.296;2022-12-17T00:10:45;100748.78;;;0.27;88.43
73624;BME280;61921;53.226;-1.296;2022-12-17T00:13:16;100746.70;;;0.22;88.62
73624;BME280;61921;53.226;-1.296;2022-12-17T00:15:36;100744.60;;;0.19;88.73
73624;BME280;61921;53.226;-1.296;2022-12-17T00:18:03;100746.78;;;0.14;88.75
73624;BME280;61921;53.226;-1.296;2022-12-17T00:20:28;100745.65;;;0.11;88.78
73624;BME280;61921;53.226;-1.296;2022-12-17T00:22:58;100748.29;;;0.08;88.79
73624;BME280;61921;53.226;-1.296;2022-12-17T00:25:19;100750.42;;;0.07;88.75
73624;BME280;61921;53.226;-1.296;2022-12-17T00:27:44;100748.43;;;0.07;88.64
73624;BME280;61921;53.226;-1.296;2022-12-17T00:30:10;100745.18;;;0.00;88.91
73624;BME280;61921;53.226;-1.296;2022-12-17T00:32:35;100744.48;;;0.00;89.05
73624;BME280;61921;53.226;-1.296;2022-12-17T00:35:00;100744.79;;;0.02;89.08
73624;BME280;61921;53.226;-1.296;2022-12-17T00:37:25;100745.18;;;0.00;89.17
73624;BME280;61921;53.226;-1.296;2022-12-17T00:39:51;100746.83;;;-0.01;89.30
73624;BME280;61921;53.226;-1.296;2022-12-17T00:42:17;100742.94;;;-0.07;89.31
73624;BME280;61921;53.226;-1.296;2022-12-17T00:44:42;100742.31;;;-0.06;89.63
73624;BME280;61921;53.226;-1.296;2022-12-17T00:47:08;100737.17;;;-0.13;89.80
73624;BME280;61921;53.226;-1.296;2022-12-17T00:49:33;100740.12;;;-0.11;89.66
73624;BME280;61921;53.226;-1.296;2022-12-17T00:51:58;100736.01;;;-0.08;89.62
73624;BME280;61921;53.226;-1.296;2022-12-17T00:54:23;100738.53;;;-0.15;90.03
73624;BME280;61921;53.226;-1.296;2022-12-17T00:56:49;100733.68;;;-0.18;89.91
73624;BME280;61921;53.226;-1.296;2022-12-17T00:59:14;100732.00;;;-0.24;90.45
73624;BME280;61921;53.226;-1.296;2022-12-17T01:01:40;100729.79;;;-0.24;90.30
73624;BME280;61921;53.226;-1.296;2022-12-17T01:04:06;100729.64;;;-0.29;90.49
73624;BME280;61921;53.226;-1.296;2022-12-17T01:06:31;100728.86;;;-0.27;90.53
73624;BME280;61921;53.226;-1.296;2022-12-17T01:08:56;100731.66;;;-0.25;90.32
73624;BME280;61921;53.226;-1.296;2022-12-17T01:11:22;100727.67;;;-0.22;90.35
73624;BME280;61921;53.226;-1.296;2022-12-17T01:13:47;100722.32;;;-0.25;90.45
73624;BME280;61921;53.226;-1.296;2022-12-17T01:16:13;100725.20;;;-0.24;90.72
73624;BME280;61921;53.226;-1.296;2022-12-17T01:18:39;100719.91;;;-0.21;90.68
73624;BME280;61921;53.226;-1.296;2022-12-17T01:21:04;100718.81;;;-0.25;90.72
73624;BME280;61921;53.226;-1.296;2022-12-17T01:23:30;100720.43;;;-0.16;90.41
73624;BME280;61921;53.226;-1.296;2022-12-17T01:25:57;100720.71;;;-0.25;91.30
73624;BME280;61921;53.226;-1.296;2022-12-17T01:28:22;100722.21;;;-0.17;91.23
73624;BME280;61921;53.226;-1.296;2022-12-17T01:30:46;100720.18;;;-0.18;91.04
73624;BME280;61921;53.226;-1.296;2022-12-17T01:33:12;100712.85;;;-0.15;91.03
73624;BME280;61921;53.226;-1.296;2022-12-17T01:35:37;100712.31;;;-0.21;91.10
73624;BME280;61921;53.226;-1.296;2022-12-17T01:38:08;100708.25;;;-0.19;91.41
73624;BME280;61921;53.226;-1.296;2022-12-17T01:40:28;100711.77;;;-0.24;91.69
73624;BME280;61921;53.226;-1.296;2022-12-17T01:42:53;100708.46;;;-0.25;92.00
73624;BME280;61921;53.226;-1.296;2022-12-17T01:45:19;100707.43;;;-0.17;91.69
73624;BME280;61921;53.226;-1.296;2022-12-17T01:47:47;100702.58;;;-0.22;92.01
73624;BME280;61921;53.226;-1.296;2022-12-17T01:50:10;100698.43;;;-0.19;91.86
73624;BME280;61921;53.226;-1.296;2022-12-17T01:52:35;100693.91;;;-0.18;91.97
73624;BME280;61921;53.226;-1.296;2022-12-17T01:55:03;100698.30;;;-0.11;91.68
73624;BME280;61921;53.226;-1.296;2022-12-17T01:57:27;100696.58;;;-0.14;91.61
73624;BME280;61921;53.226;-1.296;2022-12-17T01:59:57;100696.02;;;-0.21;91.83
73624;BME280;61921;53.226;-1.296;2022-12-17T02:02:18;100697.35;;;-0.19;91.67
73624;BME280;61921;53.226;-1.296;2022-12-17T02:04:43;100701.62;;;-0.19;91.70
73624;BME280;61921;53.226;-1.296;2022-12-17T02:07:20;100700.63;;;-0.22;91.87
73624;BME280;61921;53.226;-1.296;2022-12-17T02:09:39;100707.79;;;-0.24;91.95
73624;BME280;61921;53.226;-1.296;2022-12-17T02:12:05;100706.55;;;-0.26;92.10
73624;BME280;61921;53.226;-1.296;2022-12-17T02:14:30;100712.93;;;-0.34;92.63
73624;BME280;61921;53.226;-1.296;2022-12-17T02:16:56;100710.94;;;-0.31;92.33
73624;BME280;61921;53.226;-1.296;2022-12-17T02:19:25;100715.29;;;-0.29;92.42
73624;BME280;61921;53.226;-1.296;2022-12-17T02:21:42;100715.34;;;-0.29;92.04
73624;BME280;61921;53.226;-1.296;2022-12-17T02:24:12;100713.94;;;-0.29;91.89
73624;BME280;61921;53.226;-1.296;2022-12-17T02:26:35;100717.74;;;-0.34;92.06
73624;BME280;61921;53.226;-1.296;2022-12-17T02:28:59;100718.79;;;-0.23;91.78
73624;BME280;61921;53.226;-1.296;2022-12-17T02:31:23;100720.36;;;-0.26;91.83
73624;BME280;61921;53.226;-1.296;2022-12-17T02:33:49;100715.47;;;-0.22;91.80
73624;BME280;61921;53.226;-1.296;2022-12-17T02:36:14;100718.06;;;-0.13;91.63
73624;BME280;61921;53.226;-1.296;2022-12-17T02:38:39;100720.58;;;-0.20;91.76
73624;BME280;61921;53.226;-1.296;2022-12-17T02:41:06;100717.98;;;-0.15;91.61
73624;BME280;61921;53.226;-1.296;2022-12-17T02:43:31;100714.14;;;-0.10;90.96
73624;BME280;61921;53.226;-1.296;2022-12-17T02:45:55;100716.28;;;-0.07;90.86
73624;BME280;61921;53.226;-1.296;2022-12-17T02:48:20;100716.01;;;-0.07;90.72
73624;BME280;61921;53.226;-1.296;2022-12-17T02:50:46;100718.38;;;-0.04;90.92
73624;BME280;61921;53.226;-1.296;2022-12-17T02:53:12;100712.88;;;-0.11;90.83
73624;BME280;61921;53.226;-1.296;2022-12-17T02:55:36;100716.53;;;-0.12;90.84
73624;BME280;61921;53.226;-1.296;2022-12-17T02:58:02;100721.10;;;-0.06;90.87
73624;BME280;61921;53.226;-1.296;2022-12-17T03:00:27;100727.67;;;-0.07;90.62
73624;BME280;61921;53.226;-1.296;2022-12-17T03:02:52;100728.46;;;-0.14;91.07
73624;BME280;61921;53.226;-1.296;2022-12-17T03:05:21;100738.91;;;-0.21;91.72
73624;BME280;61921;53.226;-1.296;2022-12-17T03:07:43;100740.46;;;-0.22;91.88
73624;BME280;61921;53.226;-1.296;2022-12-17T03:10:08;100734.75;;;-0.27;92.10
73624;BME280;61921;53.226;-1.296;2022-12-17T03:12:33;100730.25;;;-0.25;92.08
73624;BME280;61921;53.226;-1.296;2022-12-17T03:14:59;100730.37;;;-0.25;91.90
73624;BME280;61921;53.226;-1.296;2022-12-17T03:17:24;100731.08;;;-0.24;91.52
73624;BME280;61921;53.226;-1.296;2022-12-17T03:19:50;100727.49;;;-0.23;91.69
73624;BME280;61921;53.226;-1.296;2022-12-17T03:22:15;100727.39;;;-0.14;91.06
73624;BME280;61921;53.226;-1.296;2022-12-17T03:24:41;100722.25;;;-0.12;91.06
73624;BME280;61921;53.226;-1.296;2022-12-17T03:27:06;100722.30;;;-0.09;90.78
73624;BME280;61921;53.226;-1.296;2022-12-17T03:29:32;100723.68;;;-0.19;91.27
73624;BME280;61921;53.226;-1.296;2022-12-17T03:31:57;100726.06;;;-0.16;90.84
73624;BME280;61921;53.226;-1.296;2022-12-17T03:34:22;100725.04;;;-0.24;91.30
73624;BME280;61921;53.226;-1.296;2022-12-17T03:36:47;100726.98;;;-0.27;91.47
73624;BME280;61921;53.226;-1.296;2022-12-17T03:39:13;100729.78;;;-0.30;91.90
73624;BME280;61921;53.226;-1.296;2022-12-17T03:41:39;100727.54;;;-0.23;91.55
73624;BME280;61921;53.226;-1.296;2022-12-17T03:44:04;100722.61;;;-0.15;91.02
73624;BME280;61921;53.226;-1.296;2022-12-17T03:46:29;100721.13;;;-0.25;91.39
73624;BME280;61921;53.226;-1.296;2022-12-17T03:48:54;100721.58;;;-0.25;91.35
73624;BME280;61921;53.226;-1.296;2022-12-17T03:51:19;100718.94;;;-0.16;90.64
73624;BME280;61921;53.226;-1.296;2022-12-17T03:53:45;100716.33;;;-0.20;90.65
73624;BME280;61921;53.226;-1.296;2022-12-17T03:56:11;100720.73;;;-0.21;90.50
73624;BME280;61921;53.226;-1.296;2022-12-17T03:58:36;100723.13;;;-0.28;90.91
73624;BME280;61921;53.226;-1.296;2022-12-17T04:01:01;100722.16;;;-0.22;90.37
73624;BME280;61921;53.226;-1.296;2022-12-17T04:03:27;100725.67;;;-0.22;90.46
73624;BME280;61921;53.226;-1.296;2022-12-17T04:05:56;100723.86;;;-0.18;89.84
73624;BME280;61921;53.226;-1.296;2022-12-17T04:08:19;100722.46;;;-0.20;90.13
73624;BME280;61921;53.226;-1.296;2022-12-17T04:10:44;100718.82;;;-0.28;89.71
73624;BME280;61921;53.226;-1.296;2022-12-17T04:13:10;100717.81;;;-0.33;89.96
73624;BME280;61921;53.226;-1.296;2022-12-17T04:15:34;100720.31;;;-0.38;90.24
73624;BME280;61921;53.226;-1.296;2022-12-17T04:18:00;100721.28;;;-0.46;90.36
73624;BME280;61921;53.226;-1.296;2022-12-17T04:20:25;100721.50;;;-0.43;90.71
73624;BME280;61921;53.226;-1.296;2022-12-17T04:22:51;100715.96;;;-0.39;90.47
73624;BME280;61921;53.226;-1.296;2022-12-17T04:25:16;100718.80;;;-0.40;90.82
73624;BME280;61921;53.226;-1.296;2022-12-17T04:27:42;100719.08;;;-0.40;90.99
73624;BME280;61921;53.226;-1.296;2022-12-17T04:30:08;100719.16;;;-0.36;90.88
73624;BME280;61921;53.226;-1.296;2022-12-17T04:32:33;100724.39;;;-0.24;90.46
73624;BME280;61921;53.226;-1.296;2022-12-17T04:34:58;100718.97;;;-0.17;89.80
73624;BME280;61921;53.226;-1.296;2022-12-17T04:37:24;100716.20;;;-0.15;89.74
73624;BME280;61921;53.226;-1.296;2022-12-17T04:39:50;100714.62;;;-0.16;89.70
73624;BME280;61921;53.226;-1.296;2022-12-17T04:42:15;100718.95;;;-0.15;89.91
73624;BME280;61921;53.226;-1.296;2022-12-17T04:44:42;100719.74;;;-0.07;89.54
73624;BME280;61921;53.226;-1.296;2022-12-17T04:47:06;100719.37;;;-0.03;89.41
73624;BME280;61921;53.226;-1.296;2022-12-17T04:49:31;100717.62;;;-0.02;88.76
73624;BME280;61921;53.226;-1.296;2022-12-17T04:51:57;100716.75;;;-0.02;88.94
73624;BME280;61921;53.226;-1.296;2022-12-17T04:54:22;100720.42;;;0.01;88.84
73624;BME280;61921;53.226;-1.296;2022-12-17T04:56:47;100719.27;;;-0.06;89.37
73624;BME280;61921;53.226;-1.296;2022-12-17T04:59:13;100723.78;;;-0.04;89.38
73624;BME280;61921;53.226;-1.296;2022-12-17T05:01:38;100726.54;;;-0.01;89.20
73624;BME280;61921;53.226;-1.296;2022-12-17T05:04:03;100728.54;;;0.02;89.22
73624;BME280;61921;53.226;-1.296;2022-12-17T05:06:29;100730.69;;;0.11;88.59
73624;BME280;61921;53.226;-1.296;2022-12-17T05:08:55;100723.67;;;0.11;88.06
73624;BME280;61921;53.226;-1.296;2022-12-17T05:11:21;100726.78;;;0.06;88.77
73624;BME280;61921;53.226;-1.296;2022-12-17T05:13:46;100726.31;;;0.07;87.97
73624;BME280;61921;53.226;-1.296;2022-12-17T05:16:12;100722.09;;;0.10;87.84
73624;BME280;61921;53.226;-1.296;2022-12-17T05:18:37;100721.49;;;0.06;87.78
73624;BME280;61921;53.226;-1.296;2022-12-17T05:21:03;100714.08;;;-0.01;87.87
73624;BME280;61921;53.226;-1.296;2022-12-17T05:23:28;100707.75;;;-0.04;88.05
73624;BME280;61921;53.226;-1.296;2022-12-17T05:26:03;100700.62;;;-0.14;88.78
73624;BME280;61921;53.226;-1.296;2022-12-17T05:28:20;100694.12;;;-0.22;89.42
73624;BME280;61921;53.226;-1.296;2022-12-17T05:30:51;100689.04;;;-0.25;89.73
73624;BME280;61921;53.226;-1.296;2022-12-17T05:33:11;100688.53;;;-0.15;89.66
73624;BME280;61921;53.226;-1.296;2022-12-17T05:35:37;100688.89;;;-0.15;89.75
73624;BME280;61921;53.226;-1.296;2022-12-17T05:38:03;100690.33;;;-0.16;89.93
73624;BME280;61921;53.226;-1.296;2022-12-17T05:40:28;100694.98;;;-0.13;89.70
73624;BME280;61921;53.226;-1.296;2022-12-17T05:42:54;100695.42;;;-0.09;89.04
73624;BME280;61921;53.226;-1.296;2022-12-17T05:45:19;100694.44;;;-0.10;89.02
73624;BME280;61921;53.226;-1.296;2022-12-17T05:47:44;100696.27;;;-0.07;89.01
73624;BME280;61921;53.226;-1.296;2022-12-17T05:50:09;100698.47;;;-0.05;88.68
73624;BME280;61921;53.226;-1.296;2022-12-17T05:52:34;100701.46;;;-0.13;89.12
73624;BME280;61921;53.226;-1.296;2022-12-17T05:55:00;100702.61;;;-0.15;89.56
73624;BME280;61921;53.226;-1.296;2022-12-17T05:57:25;100704.01;;;-0.15;90.06
73624;BME280;61921;53.226;-1.296;2022-12-17T05:59:50;100702.37;;;-0.13;90.12
73624;BME280;61921;53.226;-1.296;2022-12-17T06:02:16;100706.76;;;-0.18;90.50
73624;BME280;61921;53.226;-1.296;2022-12-17T06:04:41;100709.70;;;-0.10;90.34
73624;BME280;61921;53.226;-1.296;2022-12-17T06:07:06;100706.76;;;-0.12;90.57
73624;BME280;61921;53.226;-1.296;2022-12-17T06:09:32;100705.41;;;-0.09;90.78
73624;BME280;61921;53.226;-1.296;2022-12-17T06:11:58;100705.52;;;-0.06;90.98
73624;BME280;61921;53.226;-1.296;2022-12-17T06:14:23;100706.60;;;-0.09;91.09
73624;BME280;61921;53.226;-1.296;2022-12-17T06:16:48;100713.08;;;-0.09;91.27
73624;BME280;61921;53.226;-1.296;2022-12-17T06:19:13;100710.52;;;-0.04;91.21
73624;BME280;61921;53.226;-1.296;2022-12-17T06:21:39;100704.65;;;-0.03;91.57
73624;BME280;61921;53.226;-1.296;2022-12-17T06:24:04;100709.33;;;-0.01;91.70
73624;BME280;61921;53.226;-1.296;2022-12-17T06:26:30;100707.98;;;0.02;91.88
73624;BME280;61921;53.226;-1.296;2022-12-17T06:28:56;100709.68;;;0.13;91.40
73624;BME280;61921;53.226;-1.296;2022-12-17T06:31:21;100705.02;;;0.18;91.06
73624;BME280;61921;53.226;-1.296;2022-12-17T06:33:46;100699.96;;;0.16;90.91
73624;BME280;61921;53.226;-1.296;2022-12-17T06:36:11;100706.53;;;0.22;90.86
73624;BME280;61921;53.226;-1.296;2022-12-17T06:38:37;100704.45;;;0.17;90.78
73624;BME280;61921;53.226;-1.296;2022-12-17T06:41:03;100703.22;;;0.11;91.38
73624;BME280;61921;53.226;-1.296;2022-12-17T06:43:28;100701.39;;;0.11;91.77
73624;BME280;61921;53.226;-1.296;2022-12-17T06:45:53;100710.77;;;0.14;91.47
73624;BME280;61921;53.226;-1.296;2022-12-17T06:48:19;100709.76;;;0.18;91.28
73624;BME280;61921;53.226;-1.296;2022-12-17T06:50:44;100713.83;;;0.22;90.72
73624;BME280;61921;53.226;-1.296;2022-12-17T06:53:10;100718.35;;;0.22;90.76
73624;BME280;61921;53.226;-1.296;2022-12-17T06:55:35;100718.66;;;0.18;91.48
73624;BME280;61921;53.226;-1.296;2022-12-17T06:58:02;100722.30;;;0.19;91.03
73624;BME280;61921;53.226;-1.296;2022-12-17T07:00:27;100724.24;;;0.28;90.76
73624;BME280;61921;53.226;-1.296;2022-12-17T07:02:54;100726.20;;;0.29;90.53
73624;BME280;61921;53.226;-1.296;2022-12-17T07:05:18;100726.78;;;0.28;90.86
73624;BME280;61921;53.226;-1.296;2022-12-17T07:07:43;100723.74;;;0.24;90.48
73624;BME280;61921;53.226;-1.296;2022-12-17T07:10:09;100716.45;;;0.27;90.17
73624;BME280;61921;53.226;-1.296;2022-12-17T07:12:34;100722.40;;;0.28;89.75
73624;BME280;61921;53.226;-1.296;2022-12-17T07:15:00;100721.23;;;0.26;89.80
73624;BME280;61921;53.226;-1.296;2022-12-17T07:17:25;100721.33;;;0.19;90.15
73624;BME280;61921;53.226;-1.296;2022-12-17T07:19:51;100717.95;;;0.11;90.44
73624;BME280;61921;53.226;-1.296;2022-12-17T07:22:17;100715.76;;;0.09;90.72
73624;BME280;61921;53.226;-1.296;2022-12-17T07:24:42;100712.34;;;0.05;90.71
73624;BME280;61921;53.226;-1.296;2022-12-17T07:27:08;100714.88;;;0.02;91.09
73624;BME280;61921;53.226;-1.296;2022-12-17T07:29:33;100716.42;;;0.03;90.79
73624;BME280;61921;53.226;-1.296;2022-12-17T07:31:59;100715.36;;;-0.01;91.31
73624;BME280;61921;53.226;-1.296;2022-12-17T07:34:24;100719.09;;;-0.07;91.92
73624;BME280;61921;53.226;-1.296;2022-12-17T07:36:50;100720.46;;;-0.03;91.61
73624;BME280;61921;53.226;-1.296;2022-12-17T07:39:15;100719.70;;;-0.06;92.46
73624;BME280;61921;53.226;-1.296;2022-12-17T07:41:41;100725.55;;;-0.08;92.50
73624;BME280;61921;53.226;-1.296;2022-12-17T07:44:06;100729.71;;;-0.05;92.72
73624;BME280;61921;53.226;-1.296;2022-12-17T07:46:31;100732.53;;;0.05;92.17
73624;BME280;61921;53.226;-1.296;2022-12-17T07:48:58;100729.49;;;0.04;92.54
73624;BME280;61921;53.226;-1.296;2022-12-17T07:51:23;100739.56;;;0.12;91.98
73624;BME280;61921;53.226;-1.296;2022-12-17T07:53:48;100739.04;;;0.10;92.34
73624;BME280;61921;53.226;-1.296;2022-12-17T07:56:14;100734.96;;;0.14;91.95
73624;BME280;61921;53.226;-1.296;2022-12-17T07:58:39;100729.07;;;0.14;91.76
73624;BME280;61921;53.226;-1.296;2022-12-17T08:01:05;100726.88;;;0.06;92.70
73624;BME280;61921;53.226;-1.296;2022-12-17T08:03:30;100722.75;;;0.04;92.54
73624;BME280;61921;53.226;-1.296;2022-12-17T08:05:57;100727.65;;;-0.02;93.10
73624;BME280;61921;53.226;-1.296;2022-12-17T08:08:21;100719.79;;;-0.04;93.09
73624;BME280;61921;53.226;-1.296;2022-12-17T08:10:48;100724.37;;;0.01;93.30
73624;BME280;61921;53.226;-1.296;2022-12-17T08:13:12;100724.82;;;-0.01;93.26
73624;BME280;61921;53.226;-1.296;2022-12-17T08:15:38;100723.03;;;0.05;92.95
73624;BME280;61921;53.226;-1.296;2022-12-17T08:18:03;100724.70;;;0.05;92.77
73624;BME280;61921;53.226;-1.296;2022-12-17T08:20:28;100728.85;;;0.01;93.05
73624;BME280;61921;53.226;-1.296;2022-12-17T08:23:00;100730.58;;;-0.01;93.43
73624;BME280;61921;53.226;-1.296;2022-12-17T08:25:19;100735.26;;;0.04;93.42
73624;BME280;61921;53.226;-1.296;2022-12-17T08:27:45;100730.37;;;0.17;92.96
73624;BME280;61921;53.226;-1.296;2022-12-17T08:30:11;100735.00;;;0.26;92.82
73624;BME280;61921;53.226;-1.296;2022-12-17T08:32:36;100733.85;;;0.32;92.56
73624;BME280;61921;53.226;-1.296;2022-12-17T08:35:01;100729.28;;;0.36;92.51
73624;BME280;61921;53.226;-1.296;2022-12-17T08:37:27;100727.98;;;0.33;92.66
73624;BME280;61921;53.226;-1.296;2022-12-17T08:39:53;100727.99;;;0.40;92.74
73624;BME280;61921;53.226;-1.296;2022-12-17T08:42:19;100731.53;;;0.38;93.01
73624;BME280;61921;53.226;-1.296;2022-12-17T08:44:44;100735.57;;;0.44;93.08
73624;BME280;61921;53.226;-1.296;2022-12-17T08:47:10;100739.18;;;0.50;92.92
73624;BME280;61921;53.226;-1.296;2022-12-17T08:49:35;100745.07;;;0.64;92.57
73624;BME280;61921;53.226;-1.296;2022-12-17T08:52:00;100746.28;;;0.55;92.54
73624;BME280;61921;53.226;-1.296;2022-12-17T08:54:25;100746.88;;;0.59;92.43
73624;BME280;61921;53.226;-1.296;2022-12-17T08:56:51;100745.88;;;0.61;92.44
73624;BME280;61921;53.226;-1.296;2022-12-17T08:59:16;100742.68;;;0.60;92.78
73624;BME280;61921;53.226;-1.296;2022-12-17T09:01:41;100740.82;;;0.69;92.36
73624;BME280;61921;53.226;-1.296;2022-12-17T09:04:07;100742.09;;;0.74;92.16
73624;BME280;61921;53.226;-1.296;2022-12-17T09:06:33;100745.40;;;0.86;91.97
73624;BME280;61921;53.226;-1.296;2022-12-17T09:08:58;100741.77;;;0.93;91.92
73624;BME280;61921;53.226;-1.296;2022-12-17T09:11:24;100746.37;;;0.97;91.95
73624;BME280;61921;53.226;-1.296;2022-12-17T09:13:49;100751.78;;;1.01;91.79
73624;BME280;61921;53.226;-1.296;2022-12-17T09:16:14;100750.54;;;1.05;91.87
73624;BME280;61921;53.226;-1.296;2022-12-17T09:18:39;100758.68;;;1.07;92.03
73624;BME280;61921;53.226;-1.296;2022-12-17T09:21:05;100763.91;;;1.07;92.05
73624;BME280;61921;53.226;-1.296;2022-12-17T09:23:30;100769.44;;;1.19;91.89
73624;BME280;61921;53.226;-1.296;2022-12-17T09:25:56;100769.29;;;1.20;91.62
73624;BME280;61921;53.226;-1.296;2022-12-17T09:28:20;100773.09;;;1.21;91.46
73624;BME280;61921;53.226;-1.296;2022-12-17T09:30:46;100773.89;;;1.24;91.33
73624;BME280;61921;53.226;-1.296;2022-12-17T09:33:14;100774.05;;;1.20;91.42
73624;BME280;61921;53.226;-1.296;2022-12-17T09:35:36;100775.03;;;1.17;91.63
73624;BME280;61921;53.226;-1.296;2022-12-17T09:38:02;100781.03;;;1.20;91.73
73624;BME280;61921;53.226;-1.296;2022-12-17T09:40:29;100787.57;;;1.32;91.77
73624;BME280;61921;53.226;-1.296;2022-12-17T09:42:57;100786.90;;;1.38;91.45
73624;BME280;61921;53.226;-1.296;2022-12-17T09:45:22;100787.77;;;1.47;91.09
73624;BME280;61921;53.226;-1.296;2022-12-17T09:47:49;100779.55;;;1.39;91.28
73624;BME280;61921;53.226;-1.296;2022-12-17T09:50:12;100787.30;;;1.49;91.33
73624;BME280;61921;53.226;-1.296;2022-12-17T09:52:38;100785.92;;;1.50;91.46
73624;BME280;61921;53.226;-1.296;2022-12-17T09:55:02;100787.28;;;1.68;91.68
73624;BME280;61921;53.226;-1.296;2022-12-17T09:57:28;100784.21;;;1.93;90.75
73624;BME280;61921;53.226;-1.296;2022-12-17T09:59:52;100783.13;;;1.98;90.52
73624;BME280;61921;53.226;-1.296;2022-12-17T10:02:19;100784.42;;;2.02;90.12
73624;BME280;61921;53.226;-1.296;2022-12-17T10:04:45;100783.43;;;2.06;90.14
73624;BME280;61921;53.226;-1.296;2022-12-17T10:07:13;100778.64;;;2.14;89.84
73624;BME280;61921;53.226;-1.296;2022-12-17T10:09:33;100778.27;;;2.05;89.73
73624;BME280;61921;53.226;-1.296;2022-12-17T10:12:07;100778.05;;;2.15;89.61
73624;BME280;61921;53.226;-1.296;2022-12-17T10:14:24;100779.59;;;2.11;89.42
73624;BME280;61921;53.226;-1.296;2022-12-17T10:16:49;100780.81;;;2.15;89.53
73624;BME280;61921;53.226;-1.296;2022-12-17T10:19:24;100783.99;;;2.08;89.66
73624;BME280;61921;53.226;-1.296;2022-12-17T10:21:40;100785.70;;;2.10;89.78
73624;BME280;61921;53.226;-1.296;2022-12-17T10:24:07;100787.69;;;2.09;89.94
73624;BME280;61921;53.226;-1.296;2022-12-17T10:26:33;100786.67;;;2.31;89.90
73624;BME280;61921;53.226;-1.296;2022-12-17T10:29:02;100791.54;;;2.48;89.52
73624;BME280;61921;53.226;-1.296;2022-12-17T10:31:22;100790.79;;;2.69;89.01
73624;BME280;61921;53.226;-1.296;2022-12-17T10:33:47;100792.70;;;2.84;88.50
73624;BME280;61921;53.226;-1.296;2022-12-17T10:36:20;100789.31;;;2.80;88.43
73624;BME280;61921;53.226;-1.296;2022-12-17T10:38:37;100793.19;;;2.84;88.16
73624;BME280;61921;53.226;-1.296;2022-12-17T10:41:03;100795.64;;;2.93;87.90
73624;BME280;61921;53.226;-1.296;2022-12-17T10:43:31;100793.04;;;2.93;88.00
73624;BME280;61921;53.226;-1.296;2022-12-17T10:45:56;100785.94;;;3.09;87.75
73624;BME280;61921;53.226;-1.296;2022-12-17T10:48:21;100784.97;;;3.10;88.00
73624;BME280;61921;53.226;-1.296;2022-12-17T10:50:45;100787.44;;;3.15;87.81
73624;BME280;61921;53.226;-1.296;2022-12-17T10:53:17;100793.69;;;3.09;87.96
73624;BME280;61921;53.226;-1.296;2022-12-17T10:55:35;100797.28;;;3.10;87.99
73624;BME280;61921;53.226;-1.296;2022-12-17T10:58:01;100800.36;;;3.09;87.93
73624;BME280;61921;53.226;-1.296;2022-12-17T11:00:29;100792.70;;;3.24;87.37
73624;BME280;61921;53.226;-1.296;2022-12-17T11:02:52;100785.77;;;3.26;87.12
73624;BME280;61921;53.226;-1.296;2022-12-17T11:05:24;100781.10;;;3.15;87.24
73624;BME280;61921;53.226;-1.296;2022-12-17T11:07:44;100781.48;;;3.25;87.16
73624;BME280;61921;53.226;-1.296;2022-12-17T11:10:14;100783.31;;;3.32;86.95
73624;BME280;61921;53.226;-1.296;2022-12-17T11:12:38;100783.97;;;3.33;86.86
73624;BME280;61921;53.226;-1.296;2022-12-17T11:15:06;100778.86;;;3.32;87.13
73624;BME280;61921;53.226;-1.296;2022-12-17T11:17:26;100781.12;;;3.38;86.93
73624;BME280;61921;53.226;-1.296;2022-12-17T11:19:54;100781.87;;;3.37;87.25
73624;BME280;61921;53.226;-1.296;2022-12-17T11:22:28;100781.99;;;3.39;87.28
73624;BME280;61921;53.226;-1.296;2022-12-17T11:24:45;100783.63;;;3.41;87.66
73624;BME280;61921;53.226;-1.296;2022-12-17T11:27:08;100787.71;;;3.42;87.84
73624;BME280;61921;53.226;-1.296;2022-12-17T11:29:32;100787.58;;;3.49;87.64
73624;BME280;61921;53.226;-1.296;2022-12-17T11:32:12;100788.95;;;3.53;87.62
73624;BME280;61921;53.226;-1.296;2022-12-17T11:34:28;100793.14;;;3.66;87.49
73624;BME280;61921;53.226;-1.296;2022-12-17T11:36:55;100793.85;;;3.67;86.93
73624;BME280;61921;53.226;-1.296;2022-12-17T11:39:20;100797.20;;;3.76;86.70
73624;BME280;61921;53.226;-1.296;2022-12-17T11:41:45;100793.17;;;3.87;86.56
73624;BME280;61921;53.226;-1.296;2022-12-17T11:44:10;100786.39;;;4.10;86.08
73624;BME280;61921;53.226;-1.296;2022-12-17T11:46:37;100779.51;;;4.20;86.03
73624;BME280;61921;53.226;-1.296;2022-12-17T11:49:00;100775.28;;;4.21;85.65
73624;BME280;61921;53.226;-1.296;2022-12-17T11:51:26;100771.71;;;4.33;85.36
73624;BME280;61921;53.226;-1.296;2022-12-17T11:53:53;100776.00;;;4.32;85.25
73624;BME280;61921;53.226;-1.296;2022-12-17T11:56:15;100776.66;;;4.34;85.07
73624;BME280;61921;53.226;-1.296;2022-12-17T11:58:39;100772.40;;;4.25;84.85
73624;BME280;61921;53.226;-1.296;2022-12-17T12:01:08;100766.18;;;4.47;84.85
73624;BME280;61921;53.226;-1.296;2022-12-17T12:03:33;100761.18;;;4.46;84.62
73624;BME280;61921;53.226;-1.296;2022-12-17T12:05:56;100761.49;;;4.33;84.58
73624;BME280;61921;53.226;-1.296;2022-12-17T12:08:22;100760.61;;;4.25;84.88
73624;BME280;61921;53.226;-1.296;2022-12-17T12:10:45;100760.88;;;4.25;85.22
73624;BME280;61921;53.226;-1.296;2022-12-17T12:13:16;100759.87;;;4.43;84.88
73624;BME280;61921;53.226;-1.296;2022-12-17T12:15:38;100760.84;;;4.34;84.91
73624;BME280;61921;53.226;-1.296;2022-12-17T12:18:02;100762.14;;;4.26;85.49
73624;BME280;61921;53.226;-1.296;2022-12-17T12:20:35;100764.16;;;4.39;85.45
73624;BME280;61921;53.226;-1.296;2022-12-17T12:22:54;100761.88;;;4.45;85.08
73624;BME280;61921;53.226;-1.296;2022-12-17T12:25:21;100758.08;;;4.60;85.29
73624;BME280;61921;53.226;-1.296;2022-12-17T12:27:48;100764.66;;;4.68;84.82
73624;BME280;61921;53.226;-1.296;2022-12-17T12:30:10;100763.67;;;4.89;84.34
73624;BME280;61921;53.226;-1.296;2022-12-17T12:32:37;100759.02;;;5.28;83.78
73624;BME280;61921;53.226;-1.296;2022-12-17T12:34:57;100760.82;;;5.46;82.81